Time;durP1;ratioP1;P1;durP2;ratioP2;P2;SDS_P1;SDS_P2;PMS_P1;PMS_P2;Temp;Humidity;BMP_temperature;BMP_pressure;BME280_temperature;BME280_humidity;BME280_pressure;Samples;Min_cycle;Max_cycle;Signal;HPM_P1;HPM_P2
2020/12/11 00:02:04;;;;;;;23.13;13.45;;;1.20;99.90;;;;;;5048435;28;20064;-63
2020/12/11 00:04:30;;;;;;;20.48;13.55;;;1.20;99.90;;;;;;5026612;28;20029;-62
2020/12/11 00:06:59;;;;;;;20.25;12.35;;;1.20;99.90;;;;;;5037885;28;20032;-62
2020/12/11 00:09:28;;;;;;;22.65;13.05;;;1.30;99.90;;;;;;5035648;28;20332;-62
2020/12/11 00:11:54;;;;;;;21.38;12.48;;;1.30;99.90;;;;;;5039258;28;20025;-61
2020/12/11 00:14:20;;;;;;;20.10;12.73;;;1.30;99.90;;;;;;5044949;28;20116;-62
2020/12/11 00:16:45;;;;;;;19.27;12.52;;;1.30;99.90;;;;;;5042691;28;20055;-61
2020/12/11 00:19:11;;;;;;;20.25;13.32;;;1.20;99.90;;;;;;5046805;28;20028;-61
2020/12/11 00:21:41;;;;;;;21.25;12.63;;;1.30;99.90;;;;;;5045354;28;20049;-62
2020/12/11 00:24:07;;;;;;;19.73;12.65;;;1.30;99.90;;;;;;5028308;28;20711;-62
2020/12/11 00:26:33;;;;;;;22.77;13.68;;;1.30;99.90;;;;;;5034961;28;20387;-62
2020/12/11 00:28:58;;;;;;;26.67;13.75;;;1.30;99.90;;;;;;5040958;28;20095;-62
2020/12/11 00:31:25;;;;;;;20.23;12.90;;;1.30;99.90;;;;;;5040666;28;20066;-62
2020/12/11 00:33:51;;;;;;;21.52;12.45;;;1.30;99.90;;;;;;5042732;28;20064;-62
2020/12/11 00:36:17;;;;;;;21.38;12.70;;;1.30;99.90;;;;;;5042416;28;20029;-63
2020/12/11 00:38:42;;;;;;;20.48;12.18;;;1.30;99.90;;;;;;5041263;28;20113;-62
2020/12/11 00:41:08;;;;;;;20.65;11.60;;;1.30;99.90;;;;;;5043690;28;20163;-61
2020/12/11 00:43:33;;;;;;;19.55;12.20;;;1.30;99.90;;;;;;5040506;28;20041;-62
2020/12/11 00:45:59;;;;;;;21.42;13.00;;;1.30;99.90;;;;;;5040071;28;20018;-62
2020/12/11 00:48:25;;;;;;;20.50;13.50;;;1.30;99.90;;;;;;5043103;28;20394;-60
2020/12/11 00:50:50;;;;;;;21.52;13.20;;;1.30;99.90;;;;;;5049676;28;20021;-61
2020/12/11 00:53:16;;;;;;;21.30;12.82;;;1.30;99.90;;;;;;5043333;28;20040;-63
2020/12/11 00:55:42;;;;;;;19.30;12.27;;;1.30;99.90;;;;;;5048725;28;20029;-62
2020/12/11 00:58:07;;;;;;;21.83;12.73;;;1.30;99.90;;;;;;5043693;28;20064;-61
2020/12/11 01:00:33;;;;;;;20.65;12.63;;;1.30;99.90;;;;;;5042534;28;20075;-61
2020/12/11 01:02:59;;;;;;;21.52;12.90;;;1.30;99.90;;;;;;5040396;28;20483;-62
2020/12/11 01:05:24;;;;;;;22.48;13.20;;;1.30;99.90;;;;;;5036232;28;20078;-62
2020/12/11 01:07:50;;;;;;;19.45;13.05;;;1.30;99.90;;;;;;5046541;28;20483;-63
2020/12/11 01:10:15;;;;;;;18.50;11.75;;;1.30;99.90;;;;;;5043598;28;20029;-63
2020/12/11 01:12:41;;;;;;;22.52;12.75;;;1.40;99.90;;;;;;5046629;28;20029;-62
2020/12/11 01:15:06;;;;;;;22.38;11.98;;;1.30;99.90;;;;;;5037936;28;20025;-62
2020/12/11 01:17:32;;;;;;;19.45;12.65;;;1.30;99.90;;;;;;5038617;28;20033;-63
2020/12/11 01:19:57;;;;;;;22.20;13.35;;;1.30;99.90;;;;;;5029756;28;20037;-62
2020/12/11 01:22:23;;;;;;;23.75;13.93;;;1.30;99.90;;;;;;5036464;28;20023;-61
2020/12/11 01:24:48;;;;;;;22.88;12.98;;;1.30;99.90;;;;;;5040437;28;20490;-60
2020/12/11 01:27:14;;;;;;;24.08;13.88;;;1.30;99.90;;;;;;5042482;28;20498;-62
2020/12/11 01:29:39;;;;;;;23.65;13.63;;;1.30;99.90;;;;;;5043842;28;20501;-62
2020/12/11 01:32:05;;;;;;;20.15;12.80;;;1.20;99.90;;;;;;5040498;28;20024;-62
2020/12/11 01:34:30;;;;;;;18.58;11.82;;;1.30;99.90;;;;;;5042793;28;20025;-61
2020/12/11 01:37:02;;;;;;;21.08;12.57;;;1.30;99.90;;;;;;5029706;28;20507;-62
2020/12/11 01:39:27;;;;;;;25.58;12.30;;;1.30;99.90;;;;;;5042744;28;20017;-63
2020/12/11 01:41:53;;;;;;;22.20;11.90;;;1.20;99.90;;;;;;5033479;28;20021;-62
2020/12/11 01:44:19;;;;;;;16.90;11.00;;;1.30;99.90;;;;;;5042579;28;20033;-62
2020/12/11 01:46:47;;;;;;;21.23;12.38;;;1.20;99.90;;;;;;5043648;28;20029;-62
2020/12/11 01:49:13;;;;;;;19.25;11.70;;;1.30;99.90;;;;;;5034524;28;20025;-62
2020/12/11 01:51:38;;;;;;;20.60;11.77;;;1.30;99.90;;;;;;5012693;28;20754;-60
2020/12/11 01:54:05;;;;;;;17.40;11.07;;;1.20;99.90;;;;;;5020261;28;20491;-61
2020/12/11 01:56:35;;;;;;;17.63;11.02;;;1.30;99.90;;;;;;5012372;28;20026;-62
2020/12/11 01:59:03;;;;;;;15.30;10.55;;;1.30;99.90;;;;;;5041632;28;20108;-62
2020/12/11 02:01:35;;;;;;;19.70;11.55;;;1.30;99.90;;;;;;5045898;28;20036;-61
2020/12/11 02:04:03;;;;;;;19.58;11.63;;;1.30;99.90;;;;;;5037192;28;20425;-61
2020/12/11 02:06:29;;;;;;;17.00;10.43;;;1.20;99.90;;;;;;5025005;28;20491;-62
2020/12/11 02:08:56;;;;;;;19.75;12.02;;;1.20;99.90;;;;;;5029055;28;20034;-62
2020/12/11 02:11:23;;;;;;;20.58;12.80;;;1.20;99.90;;;;;;5034373;28;20045;-62
2020/12/11 02:13:48;;;;;;;18.83;11.82;;;1.20;99.90;;;;;;5040058;28;20147;-62
2020/12/11 02:16:18;;;;;;;18.17;11.10;;;1.20;99.90;;;;;;5040244;28;20062;-61
2020/12/11 02:18:44;;;;;;;18.23;11.13;;;1.20;99.90;;;;;;5030236;28;20025;-60
2020/12/11 02:21:10;;;;;;;21.15;12.45;;;1.10;99.90;;;;;;5031840;28;20390;-60
2020/12/11 02:23:36;;;;;;;18.58;12.10;;;1.20;99.90;;;;;;5033216;28;20376;-63
2020/12/11 02:26:01;;;;;;;20.38;12.18;;;1.20;99.90;;;;;;5040688;28;20049;-62
2020/12/11 02:28:32;;;;;;;17.48;10.45;;;1.20;99.90;;;;;;5041336;28;20481;-61
2020/12/11 02:30:57;;;;;;;19.85;12.38;;;1.20;99.90;;;;;;5036804;28;20390;-61
2020/12/11 02:33:23;;;;;;;19.85;12.00;;;1.20;99.90;;;;;;5035193;28;20033;-61
2020/12/11 02:35:49;;;;;;;18.58;11.30;;;1.20;99.90;;;;;;5040992;28;20548;-61
2020/12/11 02:38:15;;;;;;;19.45;11.00;;;1.20;99.90;;;;;;5041293;28;20028;-60
2020/12/11 02:40:49;;;;;;;20.77;12.07;;;1.20;99.90;;;;;;5042204;28;20029;-62
2020/12/11 02:43:15;;;;;;;24.48;12.73;;;1.20;99.90;;;;;;5039855;28;20025;-62
2020/12/11 02:45:44;;;;;;;20.05;11.90;;;1.10;99.90;;;;;;5035172;28;20029;-61
2020/12/11 02:48:09;;;;;;;17.38;11.45;;;1.10;99.90;;;;;;5041888;28;20025;-61
2020/12/11 02:50:35;;;;;;;17.15;11.05;;;1.10;99.90;;;;;;5042237;28;20029;-63
2020/12/11 02:53:01;;;;;;;17.88;11.15;;;1.10;99.90;;;;;;5038910;28;20503;-62
2020/12/11 02:55:26;;;;;;;15.00;10.00;;;1.20;99.90;;;;;;5030703;28;20390;-61
2020/12/11 02:57:52;;;;;;;20.27;11.85;;;1.20;99.90;;;;;;5033092;28;20364;-60
2020/12/11 03:00:18;;;;;;;17.50;11.68;;;1.20;99.90;;;;;;5032053;28;20055;-61
2020/12/11 03:02:43;;;;;;;15.38;10.40;;;1.20;99.90;;;;;;5033793;28;20022;-63
2020/12/11 03:05:09;;;;;;;22.15;11.20;;;1.30;99.90;;;;;;5029258;28;20566;-61
2020/12/11 03:07:34;;;;;;;17.08;10.90;;;1.30;99.90;;;;;;5026110;28;20538;-62
2020/12/11 03:10:00;;;;;;;17.00;10.80;;;1.30;99.90;;;;;;5024696;28;20518;-63
2020/12/11 03:12:25;;;;;;;18.10;10.93;;;1.30;99.90;;;;;;5033401;28;20022;-62
2020/12/11 03:14:51;;;;;;;17.10;10.82;;;1.30;99.90;;;;;;5033652;28;20034;-63
2020/12/11 03:17:16;;;;;;;17.77;11.05;;;1.30;99.90;;;;;;5037440;28;20025;-63
2020/12/11 03:19:42;;;;;;;17.92;10.45;;;1.10;99.90;;;;;;5046927;28;20055;-62
2020/12/11 03:22:07;;;;;;;20.20;10.95;;;1.10;99.90;;;;;;5027423;28;20029;-62
2020/12/11 03:24:33;;;;;;;18.55;11.55;;;1.00;99.90;;;;;;5031252;28;20048;-63
2020/12/11 03:26:58;;;;;;;17.30;11.15;;;1.00;99.90;;;;;;5035032;28;20488;-63
2020/12/11 03:29:24;;;;;;;19.88;11.57;;;0.90;99.90;;;;;;5033438;28;20510;-61
2020/12/11 03:31:49;;;;;;;20.65;11.82;;;0.90;99.90;;;;;;5028253;28;20026;-61
2020/12/11 03:34:15;;;;;;;19.40;11.68;;;0.90;99.90;;;;;;5028604;28;20033;-63
2020/12/11 03:36:41;;;;;;;19.35;11.35;;;0.90;99.90;;;;;;5042046;28;20029;-62
2020/12/11 03:39:06;;;;;;;18.48;11.90;;;0.90;99.90;;;;;;5041416;28;20151;-61
2020/12/11 03:41:32;;;;;;;18.48;10.73;;;0.90;99.90;;;;;;5044722;28;20483;-63
2020/12/11 03:43:57;;;;;;;21.17;11.15;;;0.90;99.90;;;;;;5042358;28;20032;-63
2020/12/11 03:46:23;;;;;;;17.67;11.15;;;0.90;99.90;;;;;;5042624;28;20083;-61
2020/12/11 03:48:50;;;;;;;19.73;12.30;;;0.90;99.90;;;;;;5044143;28;20082;-62
2020/12/11 03:51:17;;;;;;;19.95;12.10;;;0.80;99.90;;;;;;5037372;28;20029;-62
2020/12/11 03:53:43;;;;;;;16.67;11.13;;;0.80;99.90;;;;;;5030633;28;20047;-63
2020/12/11 03:56:11;;;;;;;20.33;10.80;;;0.80;99.90;;;;;;5032768;28;20022;-63
2020/12/11 03:58:38;;;;;;;21.40;12.60;;;0.80;99.90;;;;;;5032935;28;20091;-62
2020/12/11 04:01:03;;;;;;;19.73;11.02;;;0.80;99.90;;;;;;5038210;28;20049;-62
2020/12/11 04:03:29;;;;;;;18.27;10.75;;;0.90;99.90;;;;;;5032591;28;20049;-63
2020/12/11 04:05:54;;;;;;;18.40;10.98;;;0.90;99.90;;;;;;5045955;28;20021;-63
2020/12/11 04:08:20;;;;;;;16.70;10.27;;;0.90;99.90;;;;;;5040615;28;20033;-62
2020/12/11 04:10:45;;;;;;;16.42;11.00;;;0.90;99.90;;;;;;5038019;28;20056;-62
2020/12/11 04:13:11;;;;;;;18.90;11.55;;;1.00;99.90;;;;;;5032554;28;20052;-62
2020/12/11 04:15:36;;;;;;;15.73;10.32;;;1.00;99.90;;;;;;5040967;28;20030;-63
2020/12/11 04:18:02;;;;;;;18.50;11.40;;;1.00;99.90;;;;;;5039984;28;20036;-62
2020/12/11 04:20:27;;;;;;;16.15;10.10;;;1.10;99.90;;;;;;5039456;28;20032;-60
2020/12/11 04:22:53;;;;;;;18.88;11.00;;;1.10;99.90;;;;;;5027836;28;20033;-62
2020/12/11 04:25:18;;;;;;;15.90;10.65;;;1.10;99.90;;;;;;5043992;28;20537;-63
2020/12/11 04:27:44;;;;;;;18.15;11.90;;;1.20;99.90;;;;;;5041219;28;20025;-63
2020/12/11 04:30:09;;;;;;;17.70;11.35;;;1.20;99.90;;;;;;5043181;28;20028;-62
2020/12/11 04:32:35;;;;;;;18.90;11.82;;;1.20;99.90;;;;;;5034806;28;20033;-63
2020/12/11 04:35:01;;;;;;;18.08;11.27;;;1.20;99.90;;;;;;5048652;28;20064;-63
2020/12/11 04:37:26;;;;;;;17.77;11.65;;;1.20;99.90;;;;;;5040431;28;20017;-61
2020/12/11 04:39:52;;;;;;;16.45;10.65;;;1.20;99.90;;;;;;5035894;28;20050;-63
2020/12/11 04:42:18;;;;;;;21.05;11.55;;;1.20;99.90;;;;;;5044990;28;20056;-62
2020/12/11 04:44:43;;;;;;;19.98;12.10;;;1.20;99.90;;;;;;5040817;28;20084;-62
2020/12/11 04:47:10;;;;;;;15.68;9.88;;;1.20;99.90;;;;;;5046366;28;20025;-62
2020/12/11 04:49:36;;;;;;;16.48;10.93;;;1.20;99.90;;;;;;5040662;28;20025;-63
2020/12/11 04:52:05;;;;;;;16.95;11.50;;;1.30;99.90;;;;;;5043175;28;20024;-62
2020/12/11 04:54:38;;;;;;;18.55;12.40;;;1.20;99.90;;;;;;5042170;28;20029;-62
2020/12/11 04:57:08;;;;;;;17.27;11.02;;;1.20;99.90;;;;;;5043475;28;20028;-62
2020/12/11 04:59:34;;;;;;;19.90;12.65;;;1.20;99.90;;;;;;5036786;28;20449;-61
2020/12/11 05:02:02;;;;;;;17.85;11.90;;;1.20;99.90;;;;;;4979292;28;20038;-60
2020/12/11 05:04:28;;;;;;;19.05;11.40;;;1.20;99.90;;;;;;5030734;28;20043;-62
2020/12/11 05:06:53;;;;;;;18.35;12.00;;;1.30;99.90;;;;;;5028584;28;20029;-62
2020/12/11 05:09:22;;;;;;;20.67;13.10;;;1.30;99.90;;;;;;5017414;28;20026;-62
2020/12/11 05:11:48;;;;;;;20.75;12.00;;;1.30;99.90;;;;;;5025537;28;20036;-62
2020/12/11 05:14:24;;;;;;;17.83;12.23;;;1.20;99.90;;;;;;5026653;28;20033;-61
2020/12/11 05:17:04;;;;;;;17.40;11.23;;;1.30;99.90;;;;;;5023467;28;20041;-62
2020/12/11 05:19:32;;;;;;;26.00;12.05;;;1.20;99.90;;;;;;5030152;28;20033;-62
2020/12/11 05:22:10;;;;;;;19.88;12.45;;;1.20;99.90;;;;;;5029831;28;20033;-61
2020/12/11 05:25:04;;;;;;;17.65;10.30;;;1.20;99.90;;;;;;5034953;28;20029;-61
2020/12/11 05:27:35;;;;;;;20.30;11.65;;;1.20;99.90;;;;;;5024421;28;20052;-63
2020/12/11 05:30:07;;;;;;;19.25;11.23;;;1.20;99.90;;;;;;5037362;28;20033;-62
2020/12/11 05:32:35;;;;;;;19.85;12.38;;;1.20;99.90;;;;;;5021096;28;20029;-63
2020/12/11 05:35:01;;;;;;;17.50;11.25;;;1.10;99.90;;;;;;5026924;28;20025;-62
2020/12/11 05:37:27;;;;;;;22.52;12.75;;;1.10;99.90;;;;;;5030654;28;20075;-60
2020/12/11 05:39:52;;;;;;;20.45;12.35;;;1.10;99.90;;;;;;5022855;28;20494;-62
2020/12/11 05:42:18;;;;;;;18.45;12.13;;;1.10;99.90;;;;;;5032925;28;20053;-61
2020/12/11 05:44:43;;;;;;;18.08;11.30;;;1.10;99.90;;;;;;5025798;28;20060;-62
2020/12/11 05:47:25;;;;;;;20.85;12.77;;;1.10;99.90;;;;;;5016708;28;20105;-62
2020/12/11 05:49:51;;;;;;;22.20;13.20;;;1.10;99.90;;;;;;5027647;28;20049;-61
2020/12/11 05:52:24;;;;;;;21.23;12.65;;;1.10;99.90;;;;;;5024130;28;20029;-61
2020/12/11 05:54:54;;;;;;;20.88;12.88;;;1.00;99.90;;;;;;5027153;28;20028;-62
2020/12/11 05:57:21;;;;;;;20.00;12.07;;;1.10;99.90;;;;;;5025988;28;20028;-63
2020/12/11 05:59:47;;;;;;;20.08;11.90;;;1.10;99.90;;;;;;5030036;28;20041;-61
2020/12/11 06:02:17;;;;;;;20.90;12.98;;;1.10;99.90;;;;;;5012049;28;20061;-62
2020/12/11 06:04:45;;;;;;;26.23;14.90;;;1.20;99.90;;;;;;5026180;28;20040;-61
2020/12/11 06:07:13;;;;;;;21.92;13.85;;;1.20;99.90;;;;;;5027504;28;20032;-62
2020/12/11 06:09:40;;;;;;;20.77;12.95;;;1.20;99.90;;;;;;5027223;28;20021;-61
2020/12/11 06:12:08;;;;;;;26.02;14.82;;;1.30;99.90;;;;;;5037512;28;20486;-61
2020/12/11 06:15:04;;;;;;;21.83;13.57;;;1.30;99.90;;;;;;5037634;28;20032;-61
2020/12/11 06:17:39;;;;;;;21.98;12.38;;;1.30;99.90;;;;;;5031522;28;20029;-62
2020/12/11 06:20:08;;;;;;;19.08;11.75;;;1.40;99.90;;;;;;5028276;28;20031;-61
2020/12/11 06:22:35;;;;;;;21.73;12.43;;;1.40;99.90;;;;;;5034499;28;20033;-62
2020/12/11 06:25:24;;;;;;;19.60;12.52;;;1.40;99.90;;;;;;5039688;28;20107;-62
2020/12/11 06:27:50;;;;;;;18.35;11.50;;;1.40;99.90;;;;;;5031694;28;20029;-62
2020/12/11 06:30:32;;;;;;;21.70;12.90;;;1.40;99.90;;;;;;5040091;28;20517;-61
2020/12/11 06:32:59;;;;;;;17.50;11.60;;;1.50;99.90;;;;;;5029674;28;20033;-61
2020/12/11 06:35:26;;;;;;;17.83;11.50;;;1.50;99.90;;;;;;5039623;28;20026;-61
2020/12/11 06:37:52;;;;;;;18.13;11.45;;;1.60;99.90;;;;;;5034679;28;20030;-60
2020/12/11 06:40:48;;;;;;;19.48;12.07;;;1.70;99.90;;;;;;5031358;28;20064;-61
2020/12/11 06:43:39;;;;;;;17.85;10.77;;;1.70;99.90;;;;;;5028539;28;20452;-60
2020/12/11 06:46:15;;;;;;;17.42;10.68;;;1.70;99.90;;;;;;5023005;28;20498;-60
2020/12/11 06:49:12;;;;;;;17.83;10.25;;;1.70;99.90;;;;;;5038344;28;20021;-61
2020/12/11 06:51:46;;;;;;;18.13;11.75;;;1.70;99.90;;;;;;5026223;28;20029;-62
2020/12/11 06:54:12;;;;;;;;;;;1.60;99.90;;;;;;5034007;28;20717;-62
2020/12/11 06:56:45;;;;;;;19.15;11.57;;;1.70;99.90;;;;;;5030687;28;19908;-62
2020/12/11 06:59:28;;;;;;;18.25;10.80;;;1.70;99.90;;;;;;5031746;28;20021;-62
2020/12/11 07:02:17;;;;;;;19.50;12.98;;;1.70;99.90;;;;;;5014109;28;20097;-62
2020/12/11 07:04:50;;;;;;;16.25;10.88;;;1.70;99.90;;;;;;5040121;28;20025;-61
2020/12/11 07:07:18;;;;;;;18.77;11.20;;;1.70;99.90;;;;;;5037042;28;20040;-62
2020/12/11 07:09:49;;;;;;;16.70;11.90;;;1.70;99.90;;;;;;5037643;28;20014;-62
2020/12/11 07:12:15;;;;;;;17.10;11.63;;;1.70;99.90;;;;;;5033957;28;20403;-61
2020/12/11 07:14:45;;;;;;;17.42;10.40;;;1.70;99.90;;;;;;5042474;28;20029;-62
2020/12/11 07:17:10;;;;;;;19.88;11.95;;;1.80;99.90;;;;;;5033213;28;20024;-62
2020/12/11 07:19:39;;;;;;;17.35;10.88;;;1.80;99.90;;;;;;5039884;28;20029;-62
2020/12/11 07:22:06;;;;;;;16.70;11.10;;;1.90;99.90;;;;;;5036880;28;20025;-63
2020/12/11 07:24:32;;;;;;;18.75;10.70;;;1.90;99.90;;;;;;5046120;28;20032;-62
2020/12/11 07:27:05;;;;;;;18.63;11.98;;;1.90;99.90;;;;;;5037663;28;20029;-63
2020/12/11 07:29:31;;;;;;;18.38;12.15;;;1.90;99.90;;;;;;5033552;28;20028;-63
2020/12/11 07:31:57;;;;;;;16.27;11.13;;;1.90;99.90;;;;;;5021336;28;20030;-61
2020/12/11 07:34:25;;;;;;;17.17;11.07;;;1.90;99.90;;;;;;5016709;28;20033;-62
2020/12/11 07:36:55;;;;;;;17.98;11.20;;;1.90;99.90;;;;;;5018259;28;20108;-61
2020/12/11 07:39:31;;;;;;;17.00;11.38;;;1.90;99.90;;;;;;5018367;28;20036;-61
2020/12/11 07:42:01;;;;;;;20.15;13.15;;;1.90;99.90;;;;;;5019667;28;20022;-63
2020/12/11 07:44:37;;;;;;;22.95;12.48;;;1.90;99.90;;;;;;5016698;28;20026;-63
2020/12/11 07:47:15;;;;;;;19.83;12.23;;;1.90;99.90;;;;;;5017372;28;20122;-61
2020/12/11 07:49:46;;;;;;;18.05;11.82;;;1.90;99.90;;;;;;5021561;28;20514;-62
2020/12/11 07:52:21;;;;;;;17.48;11.35;;;2.00;99.90;;;;;;5015436;28;20028;-62
2020/12/11 07:54:47;;;;;;;20.27;12.90;;;2.10;99.90;;;;;;5020771;28;20099;-62
2020/12/11 07:57:14;;;;;;;16.33;11.25;;;2.10;99.90;;;;;;5026245;28;20083;-61
2020/12/11 07:59:41;;;;;;;16.85;10.27;;;2.10;99.90;;;;;;5018287;28;20101;-62
2020/12/11 08:02:07;;;;;;;17.00;11.27;;;2.20;99.90;;;;;;4995444;28;20220;-62
2020/12/11 08:04:36;;;;;;;19.52;11.60;;;2.20;99.90;;;;;;5018635;28;20033;-61
2020/12/11 08:07:02;;;;;;;17.23;11.30;;;2.30;99.90;;;;;;5020658;28;20036;-63
2020/12/11 08:09:31;;;;;;;19.63;12.00;;;2.30;99.90;;;;;;5027207;28;20025;-62
2020/12/11 08:12:16;;;;;;;20.58;12.27;;;2.30;99.90;;;;;;5035050;28;20029;-62
2020/12/11 08:14:42;;;;;;;;;;;2.40;99.90;;;;;;5036564;28;20032;-62
2020/12/11 08:17:09;;;;;;;16.85;10.82;;;2.40;99.90;;;;;;5034133;28;19909;-61
2020/12/11 08:19:35;;;;;;;17.75;10.70;;;2.40;99.90;;;;;;5019348;28;20077;-62
2020/12/11 08:22:15;;;;;;;16.27;10.30;;;2.50;99.90;;;;;;5012059;28;20021;-61
2020/12/11 08:24:42;;;;;;;17.17;11.02;;;2.50;99.90;;;;;;5012377;28;20014;-62
2020/12/11 08:27:21;;;;;;;15.90;10.52;;;2.50;99.90;;;;;;5016581;28;20071;-62
2020/12/11 08:30:14;;;;;;;15.80;9.85;;;2.60;99.90;;;;;;5013912;28;20014;-62
2020/12/11 08:32:40;;;;;;;15.85;10.27;;;2.60;99.90;;;;;;5016794;28;20470;-61
2020/12/11 08:35:20;;;;;;;16.02;10.52;;;2.60;99.90;;;;;;5012488;28;20582;-63
2020/12/11 08:37:52;;;;;;;13.65;8.88;;;2.70;99.90;;;;;;5013133;28;20026;-62
2020/12/11 08:40:18;;;;;;;14.27;10.35;;;2.80;99.90;;;;;;5014828;28;20116;-62
2020/12/11 08:46:13;;;;;;;14.95;9.68;;;2.80;99.90;;;;;;5022920;28;20024;-60
2020/12/11 08:49:15;;;;;;;16.23;9.80;;;2.90;99.90;;;;;;5013661;28;20080;-62
2020/12/11 08:51:40;;;;;;;14.65;9.77;;;3.00;99.90;;;;;;5022112;28;20521;-61
2020/12/11 08:54:08;;;;;;;13.93;10.13;;;3.10;99.90;;;;;;5011887;28;20026;-60
2020/12/11 08:56:34;;;;;;;14.75;9.63;;;3.10;99.90;;;;;;5012601;28;20021;-61
2020/12/11 08:59:00;;;;;;;16.88;9.55;;;3.20;99.90;;;;;;5015712;28;20117;-63
2020/12/11 09:01:26;;;;;;;17.38;10.57;;;3.20;99.90;;;;;;4997313;28;20600;-62
2020/12/11 09:03:51;;;;;;;14.27;9.45;;;3.10;99.90;;;;;;5012114;28;20026;-64
2020/12/11 09:06:17;;;;;;;16.08;10.23;;;3.10;99.90;;;;;;5011092;28;20030;-64
2020/12/11 09:08:42;;;;;;;19.58;10.10;;;3.20;99.90;;;;;;5010301;28;20032;-62
2020/12/11 09:11:08;;;;;;;18.17;10.98;;;3.20;99.90;;;;;;5015333;28;20747;-62
2020/12/11 09:13:34;;;;;;;15.32;9.98;;;3.30;99.90;;;;;;5014211;28;20038;-64
2020/12/11 09:15:59;;;;;;;15.90;10.93;;;3.30;99.90;;;;;;5028396;28;20025;-64
2020/12/11 09:18:25;;;;;;;14.90;9.70;;;3.30;99.90;;;;;;5031437;28;20140;-63
2020/12/11 09:20:50;;;;;;;16.52;10.18;;;3.30;99.90;;;;;;5034925;28;20075;-63
2020/12/11 09:23:16;;;;;;;14.63;9.95;;;3.30;99.90;;;;;;5037803;28;20033;-63
2020/12/11 09:25:41;;;;;;;16.10;9.52;;;3.30;99.90;;;;;;5029393;28;20028;-63
2020/12/11 09:28:16;;;;;;;14.50;9.77;;;3.30;99.90;;;;;;5037306;28;20021;-62
2020/12/11 09:30:44;;;;;;;17.27;10.32;;;3.30;99.90;;;;;;5031137;28;20029;-64
2020/12/11 09:33:17;;;;;;;16.92;10.98;;;3.30;99.90;;;;;;5012658;28;20041;-63
2020/12/11 09:35:43;;;;;;;17.37;9.70;;;3.20;99.90;;;;;;5026931;28;20339;-63
2020/12/11 09:38:08;;;;;;;14.65;9.43;;;3.20;99.90;;;;;;5016860;28;20277;-63
2020/12/11 09:40:43;;;;;;;16.75;10.80;;;3.20;99.90;;;;;;5011198;28;20163;-63
2020/12/11 09:46:06;;;;;;;14.55;10.15;;;3.20;99.90;;;;;;5011397;28;20083;-64
2020/12/11 09:49:17;;;;;;;17.75;11.10;;;3.30;99.90;;;;;;5012127;28;20036;-62
2020/12/11 09:56:24;;;;;;;15.18;9.48;;;3.60;99.90;;;;;;5015909;28;20541;-62
2020/12/11 09:58:54;;;;;;;15.13;10.27;;;3.70;99.90;;;;;;5011835;28;20458;-63
2020/12/11 10:01:30;;;;;;;16.40;9.55;;;3.90;99.90;;;;;;5000020;28;20049;-63
2020/12/11 10:03:56;;;;;;;15.43;10.02;;;3.90;99.90;;;;;;5011272;28;20029;-63
2020/12/11 10:06:25;;;;;;;14.52;9.55;;;4.10;99.90;;;;;;5017712;28;20018;-63
2020/12/11 10:08:52;;;;;;;16.40;10.13;;;4.10;99.90;;;;;;5024746;28;20053;-62
2020/12/11 10:11:21;;;;;;;15.60;10.10;;;4.20;99.90;;;;;;5015419;28;20028;-63
2020/12/11 10:13:51;;;;;;;16.58;10.80;;;4.10;99.90;;;;;;5017350;28;20029;-63
2020/12/11 10:16:17;;;;;;;13.02;8.50;;;4.10;99.90;;;;;;5018100;28;20033;-62
2020/12/11 10:18:43;;;;;;;17.90;10.95;;;4.00;99.90;;;;;;5022836;28;20025;-60
2020/12/11 10:21:10;;;;;;;16.58;9.90;;;4.00;99.90;;;;;;5017529;28;20382;-62
2020/12/11 10:23:37;;;;;;;14.60;9.45;;;3.90;99.90;;;;;;5019880;28;20021;-63
2020/12/11 10:26:03;;;;;;;17.45;10.07;;;3.80;99.90;;;;;;5022887;28;20130;-64
2020/12/11 10:28:29;;;;;;;14.98;10.23;;;3.80;99.90;;;;;;5018539;28;20018;-63
2020/12/11 10:30:55;;;;;;;16.20;10.20;;;3.90;99.90;;;;;;5023441;28;20480;-63
2020/12/11 10:33:20;;;;;;;16.80;9.57;;;3.90;99.90;;;;;;5023214;28;20040;-64
2020/12/11 10:35:46;;;;;;;19.05;9.93;;;3.80;99.90;;;;;;5020598;28;20190;-63
2020/12/11 10:38:11;;;;;;;17.27;10.88;;;3.80;99.90;;;;;;5022401;28;20056;-63
2020/12/11 10:40:37;;;;;;;15.10;10.02;;;3.90;99.90;;;;;;5016588;28;20041;-63
2020/12/11 10:43:02;;;;;;;17.90;9.90;;;3.90;99.90;;;;;;5026106;28;20044;-63
2020/12/11 10:45:28;;;;;;;18.35;9.65;;;3.90;99.90;;;;;;5015943;28;20014;-62
2020/12/11 10:47:53;;;;;;;15.05;9.73;;;3.90;99.90;;;;;;5027737;28;20037;-62
2020/12/11 10:50:19;;;;;;;14.05;9.82;;;4.00;99.90;;;;;;5020941;28;20068;-62
2020/12/11 10:52:44;;;;;;;16.20;9.27;;;4.00;99.90;;;;;;5016578;28;20021;-63
2020/12/11 10:55:10;;;;;;;16.15;9.90;;;4.00;99.90;;;;;;5021210;28;20029;-63
2020/12/11 10:57:35;;;;;;;13.93;9.35;;;4.00;99.90;;;;;;5017628;28;20029;-64
2020/12/11 11:00:01;;;;;;;15.52;9.85;;;4.10;99.90;;;;;;5017441;28;20140;-63
2020/12/11 11:02:26;;;;;;;14.30;8.95;;;4.10;99.90;;;;;;5016197;28;20099;-63
2020/12/11 11:04:52;;;;;;;15.30;9.40;;;4.10;99.90;;;;;;5026399;28;20041;-63
2020/12/11 11:07:21;;;;;;;16.92;9.95;;;4.00;99.90;;;;;;5030652;28;20025;-63
2020/12/11 11:10:05;;;;;;;15.55;9.88;;;4.00;99.90;;;;;;5023833;28;20042;-63
2020/12/11 11:12:38;;;;;;;15.75;10.52;;;3.90;99.90;;;;;;5029537;28;20083;-61
2020/12/11 11:18:05;;;;;;;15.93;9.07;;;3.90;99.90;;;;;;5016299;28;20045;-63
2020/12/11 11:21:01;;;;;;;14.07;9.77;;;3.90;99.90;;;;;;5017208;28;20033;-64
2020/12/11 11:28:30;;;;;;;13.75;8.90;;;3.90;99.90;;;;;;5020265;28;20030;-63
2020/12/11 11:30:55;;;;;;;14.95;9.55;;;3.90;99.90;;;;;;5031140;28;20053;-62
2020/12/11 11:33:21;;;;;;;14.38;9.48;;;4.00;99.90;;;;;;5024665;28;20066;-62
2020/12/11 11:35:49;;;;;;;15.45;9.50;;;4.00;99.90;;;;;;5013062;28;20052;-62
2020/12/11 11:38:16;;;;;;;16.65;9.27;;;4.00;99.90;;;;;;5012619;28;20064;-61
2020/12/11 11:40:42;;;;;;;18.55;9.77;;;4.00;99.90;;;;;;5013786;28;20038;-62
2020/12/11 11:43:07;;;;;;;18.58;10.38;;;4.10;99.90;;;;;;5009567;28;20125;-62
2020/12/11 11:45:37;;;;;;;13.80;9.32;;;4.10;99.90;;;;;;5011500;28;20411;-62
2020/12/11 11:48:07;;;;;;;13.63;9.40;;;4.20;99.90;;;;;;5009597;28;20109;-61
2020/12/11 11:50:55;;;;;;;25.83;16.10;;;4.20;99.90;;;;;;5010377;28;20484;-61
2020/12/11 11:53:21;;;;;;;36.72;22.08;;;4.30;99.90;;;;;;4992501;28;643238;-62
2020/12/11 11:55:48;;;;;;;36.88;21.65;;;4.40;99.90;;;;;;5023043;28;20068;-61
2020/12/11 11:58:14;;;;;;;56.55;37.03;;;4.50;99.90;;;;;;5011439;28;20026;-62
2020/12/11 12:00:40;;;;;;;19.83;12.75;;;4.50;99.90;;;;;;5012577;28;20030;-61
2020/12/11 12:03:05;;;;;;;15.43;9.77;;;4.60;99.90;;;;;;5001633;28;20068;-62
2020/12/11 12:05:31;;;;;;;17.48;9.60;;;4.60;99.90;;;;;;5011822;28;20096;-62
2020/12/11 12:07:57;;;;;;;15.95;9.80;;;4.70;99.90;;;;;;5027421;28;20025;-62
2020/12/11 12:10:23;;;;;;;13.23;9.30;;;4.70;99.90;;;;;;5028158;28;20108;-59
2020/12/11 12:12:48;;;;;;;16.73;9.73;;;4.70;99.90;;;;;;5032367;28;20030;-62
2020/12/11 12:15:16;;;;;;;14.15;9.27;;;4.60;99.90;;;;;;5018801;28;20025;-62
2020/12/11 12:20:23;;;;;;;14.93;9.43;;;4.80;99.90;;;;;;5024200;28;20027;-63
2020/12/11 12:30:27;;;;;;;14.32;9.18;;;5.10;99.90;;;;;;5023580;28;20041;-60
2020/12/11 12:33:39;;;;;;;11.80;8.57;;;5.30;99.90;;;;;;5030898;28;20460;-61
2020/12/11 12:35:53;;;;;;;14.35;8.38;;;5.40;99.90;;;;;;5022824;28;20483;-61
2020/12/11 12:38:43;;;;;;;12.07;7.85;;;5.50;99.90;;;;;;5009007;28;20399;-63
2020/12/11 12:43:52;;;;;;;13.73;9.02;;;5.80;99.90;;;;;;5026244;28;20040;-60
2020/12/11 12:46:18;;;;;;;13.20;7.32;;;5.90;99.90;;;;;;5012228;28;20026;-63
2020/12/11 12:48:43;;;;;;;11.88;7.95;;;6.00;99.90;;;;;;5012586;28;20083;-62
2020/12/11 12:51:09;;;;;;;11.00;7.88;;;6.00;99.90;;;;;;5013667;28;20064;-62
2020/12/11 12:53:36;;;;;;;11.52;7.57;;;6.10;99.90;;;;;;5008784;28;20040;-62
2020/12/11 12:58:50;;;;;;;12.45;7.85;;;6.00;99.90;;;;;;5011434;28;20420;-62
2020/12/11 13:01:22;;;;;;;14.20;10.45;;;6.00;99.90;;;;;;5004852;28;20036;-62
2020/12/11 13:04:11;;;;;;;11.10;7.30;;;5.90;99.90;;;;;;5018312;28;20087;-62
2020/12/11 13:06:42;;;;;;;11.15;6.90;;;6.00;99.90;;;;;;5025098;28;20021;-62
2020/12/11 13:09:08;;;;;;;11.45;6.82;;;5.90;99.90;;;;;;5019581;28;20045;-62
2020/12/11 13:11:33;;;;;;;10.65;7.45;;;5.90;99.90;;;;;;5016082;28;20049;-60
2020/12/11 13:13:59;;;;;;;11.68;7.35;;;5.90;99.90;;;;;;5035178;28;20021;-62
2020/12/11 13:16:25;;;;;;;14.38;9.55;;;6.00;99.90;;;;;;5023844;28;20038;-62
2020/12/11 13:18:51;;;;;;;13.13;7.78;;;6.00;99.90;;;;;;5036645;28;20080;-63
2020/12/11 13:21:21;;;;;;;13.02;7.78;;;6.10;99.90;;;;;;5018821;28;20385;-63
2020/12/11 13:26:47;;;;;;;12.40;8.15;;;5.90;99.90;;;;;;5012055;28;20088;-61